Clarkston, Michigan
Current Conditions -  °F | °C
As of 5:53 PM on Saturday 25 Oct 2014 (Local Time) from KPTK Reporting Station
Clear Clear  
Wind Chill: 63°   Ceiling: Unl
Heat Index: 63°   Visibility: 10mi
Dew Point: 27°   Wind: 24mph
Humidity: 26%   Direction: 280°W
Pressure: 29.73"   Gusts: 36mph
Location:  42.74°N, 83.42°W
Report Text: KPTK 252153Z 28021G31KT 10SM CLR 17/M03 A2973 RMK AO2 PK WND 27034/2114 SLP068 T01721028
Loading
Personal Weather Stations






























Interactive Weather Map
Tropical Storm Tracking
New forecast layout! Learn more

10-Day Weather Forecast

Advertisements
Track Severe Weather on mobile